Houma, LA (70361)

7:37 AM CDT on August 22, 2014 (GMT -0500)
Maple Park | Change Station
CLOSE
Current Station
Personal Weather Station
Location: Houma, LA
Elevation: 20 ft
Nearby Weather Stations

Elev 20 ft 29.60 °N, 90.73 °W | Updated 59 seconds ago

Partly Cloudy
Partly Cloudy
77.2 °F
Feels Like 78 °F
N
2.2
Wind Variable Wind from North
Gusts 3.1 mph

Today
High -- | Low -- °F
--% Chance of Precip.
Yesterday
High -- | Low -- °F
Precip. -- in
6:34 AM 7:36 PM
Waning Crescent, 8% visible
Pressure 30.11 in
Visibility 6.0 miles
Clouds Few 5000 ft
Heat Index 78 °F
Dew Point 77 °F
Humidity 99%
Rainfall 0.00 in
Snow Depth Not available.
UV 0 out of 12
Pollen 7.40 out of 12
Air Quality Not available.
Flu Activity Not available.
METAR KHUM 221150Z 00000KT 6SM BR FEW050 23/21 A3011 RMK ATIS F VA/18 RC

More Conditions Fewer Conditions

Pressure 30.11 in
Visibility 6.0 miles
Clouds Few 5000 ft
Heat Index 78 °F
Dew Point 77 °F
Humidity 99%
Rainfall 0.00 in
Snow Depth Not available.
UV 0 out of 12
Pollen 7.40 out of 12
Air Quality Not available.
Flu Activity Not available.
METAR KHUM 221150Z 00000KT 6SM BR FEW050 23/21 A3011 RMK ATIS F VA/18 RC

More Conditions Fewer Conditions

10-Day Weather Forecast

Almanac

Astronomy

Aug. 22, 2014 Rise Set
Actual Time 6:34 AM CDT 7:36 PM CDT
Civil Twilight 6:10 AM CDT 8:00 PM CDT
Nautical Twilight 5:40 AM CDT 8:29 PM CDT
Astronomical Twilight 5:10 AM CDT 8:59 PM CDT
Moon 4:03 AM CDT 5:40 PM CDT
Length of Visible Light 13h 50m
Length of Day
13h 01m
Tomorrow will be 1m 37s shorter.
Waning Crescent, 8% of the Moon is Illuminated
Today
Waning Crescent
Aug 25
New
Sep 2
First Quarter
Sep 8
Full
Sep 15
Last Quarter

Today's Extremes

State Highs State Lows

Community

WunderPhotos

Upload Photos

1,746,158 photos uploaded!

WunderBlogs® & News

Nearby

Snow Depth

Station Depth Elevation
No new snow has been reported.

Earthquake Activity

City Distance Mag. Time & Date
No recent earthquake activity has been reported nearby.
Minimum magnitude displayed is 2.5.

Coastal Water Temperatures

Place Temperature
Amerada Pass, LA 84.9 °F

Nearby Weather Stations